This is the latest recevied weather packets stored in our database for station/object S54MI-13. If no packets are shown the sender has not sent any weather packets the latest 10 day(s).
| Time | Temp. | Humidity | Pressure | Rain* | Wind** | Luminosity | Snow |
|---|---|---|---|---|---|---|---|
| 1777800736 | 23.33° C | 38% | - | - | - | 816 W/m² | - |
| 1777796416 | 21.67° C | 48% | - | - | - | 683 W/m² | - |
| 1777790656 | 16.67° C | 57% | - | - | - | 323 W/m² | - |
| 1777789215 | 15° C | 57% | - | - | - | 323 W/m² | - |
| 1777788495 | 14.44° C | 57% | - | - | - | 225 W/m² | - |
| 1777784175 | 12.78° C | 54% | - | - | - | 57 W/m² | - |
| 1777779156 | 12.22° C | 52% | - | - | - | 0 W/m² | - |
| 1777776257 | 12.78° C | 50% | - | - | - | 0 W/m² | - |
| 1777771945 | 13.33° C | 47% | - | - | - | 0 W/m² | - |
| 1777764035 | 13.33° C | 45% | - | - | - | 0 W/m² | - |
| 1777762594 | 13.89° C | 45% | - | - | - | 0 W/m² | - |
| 1777759705 | 13.89° C | 44% | - | - | - | 0 W/m² | - |
| 1777758274 | 13.89° C | 44% | - | - | - | 0 W/m² | - |
| 1777754670 | 13.89° C | 43% | - | - | - | 0 W/m² | - |
| 1777752497 | 13.89° C | 42% | - | - | - | 0 W/m² | - |
| 1777748187 | 15.56° C | 37% | - | - | - | 0 W/m² | - |
| 1777746017 | 17.22° C | 34% | - | - | - | 8 W/m² | - |
| 1777745303 | 17.22° C | 34% | - | - | - | 75 W/m² | - |
| 1777741713 | 20° C | 32% | - | - | - | 258 W/m² | - |
| 1777740263 | 20.56° C | 31% | - | - | - | 320 W/m² | - |
| 1777730204 | 22.22° C | 31% | - | - | - | 769 W/m² | - |
| 1777725163 | 21.11° C | 30% | - | - | - | 913 W/m² | - |
| 1777722259 | 21.11° C | 31% | - | - | - | 935 W/m² | - |
| 1777719389 | 20.56° C | 34% | - | - | - | 927 W/m² | - |
| 1777717941 | 20° C | 32% | - | - | - | 903 W/m² | - |
* Rain since midnight (hover to see other rain measurements)
** Current wind speed in m/s (hover to see current wind gust speed)